Time;durP1;ratioP1;P1;durP2;ratioP2;P2;SDS_P1;SDS_P2;PMS_P1;PMS_P2;Temp;Humidity;BMP_temperature;BMP_pressure;BME280_temperature;BME280_humidity;BME280_pressure;Samples;Min_cycle;Max_cycle;Signal;HPM_P1;HPM_P2
2023/09/11 00:01:17;;;;;;;13.23;7.60;;;;;;;15.49;100.00;101547.25;5053070;28;20471;-70
2023/09/11 00:03:43;;;;;;;15.47;7.63;;;;;;;15.58;100.00;101561.47;5053857;28;20021;-68
2023/09/11 00:06:08;;;;;;;12.30;8.20;;;;;;;15.55;100.00;101567.16;5052513;28;20087;-68
2023/09/11 00:08:34;;;;;;;11.87;7.63;;;;;;;15.43;100.00;101556.00;5053663;28;20469;-69
2023/09/11 00:11:00;;;;;;;10.60;6.87;;;;;;;15.49;100.00;101557.13;5053456;28;20043;-70
2023/09/11 00:13:27;;;;;;;23.90;8.73;;;;;;;15.47;100.00;101565.38;5053561;28;20021;-69
2023/09/11 00:15:52;;;;;;;10.30;7.70;;;;;;;15.34;100.00;101549.00;5053770;28;20064;-69
2023/09/11 00:18:18;;;;;;;11.20;7.03;;;;;;;15.38;100.00;101554.84;5053640;28;20052;-67
2023/09/11 00:20:43;;;;;;;14.23;7.50;;;;;;;15.38;100.00;101562.91;5053640;28;20353;-71
2023/09/11 00:23:08;;;;;;;10.97;8.33;;;;;;;15.25;100.00;101544.66;5053211;28;20036;-69
2023/09/11 00:25:35;;;;;;;12.43;9.10;;;;;;;15.31;100.00;101564.59;5053408;28;20032;-68
2023/09/11 00:28:00;;;;;;;13.37;7.87;;;;;;;15.21;100.00;101558.59;5053535;28;20021;-68
2023/09/11 00:30:26;;;;;;;17.77;8.00;;;;;;;15.06;100.00;101535.19;5053666;28;20086;-69
2023/09/11 00:32:54;;;;;;;13.53;8.03;;;;;;;14.90;100.00;101516.47;5053424;28;20040;-68
2023/09/11 00:35:19;;;;;;;11.63;9.57;;;;;;;15.15;100.00;101557.47;5052045;28;20103;-68
2023/09/11 00:37:45;;;;;;;13.17;9.30;;;;;;;15.11;100.00;101554.28;5052113;28;20076;-69
2023/09/11 00:40:10;;;;;;;12.40;9.90;;;;;;;14.99;100.00;101550.28;5053036;28;20465;-70
2023/09/11 00:42:36;;;;;;;16.17;8.97;;;;;;;14.96;100.00;101545.28;5053189;28;20384;-69
2023/09/11 00:45:02;;;;;;;10.63;7.87;;;;;;;14.96;100.00;101553.31;5052979;28;20029;-71
2023/09/11 00:47:29;;;;;;;10.27;8.47;;;;;;;14.99;100.00;101562.88;5053169;28;20100;-68
2023/09/11 00:49:57;;;;;;;14.93;8.57;;;;;;;14.98;100.00;101564.72;5052948;28;20420;-70
2023/09/11 00:52:24;;;;;;;12.48;9.13;;;;;;;14.90;100.00;101554.00;5052778;28;20130;-70
2023/09/11 00:54:51;;;;;;;14.17;8.63;;;;;;;14.90;100.00;101550.50;5052604;28;20170;-68
2023/09/11 00:57:18;;;;;;;8.40;7.53;;;;;;;14.64;100.00;101515.84;5052875;28;20028;-70
2023/09/11 00:59:51;;;;;;;9.43;8.33;;;;;;;14.78;100.00;101537.47;5052822;28;20743;-69
2023/09/11 01:02:17;;;;;;;11.23;8.20;;;;;;;14.93;100.00;101559.03;5051685;28;20178;-71
2023/09/11 01:04:43;;;;;;;10.87;8.07;;;;;;;14.92;100.00;101565.41;5052812;28;20574;-70
2023/09/11 01:07:09;;;;;;;13.23;9.63;;;;;;;14.86;100.00;101566.09;5052564;28;20039;-70
2023/09/11 01:09:34;;;;;;;9.47;7.97;;;;;;;14.63;100.00;101516.88;5051565;28;20029;-67
2023/09/11 01:12:00;;;;;;;18.33;8.53;;;;;;;14.84;100.00;101552.00;5051653;28;20033;-69
2023/09/11 01:14:27;;;;;;;11.57;9.17;;;;;;;14.82;100.00;101562.06;5052842;28;20040;-69
2023/09/11 01:17:06;;;;;;;13.87;9.50;;;;;;;14.85;100.00;101551.84;5052577;28;20064;-69
2023/09/11 01:20:08;;;;;;;13.47;9.13;;;;;;;14.84;100.00;101552.84;5052562;28;20040;-69
2023/09/11 01:22:48;;;;;;;12.10;9.57;;;;;;;14.79;100.00;101549.00;5052580;28;20025;-71
2023/09/11 01:25:29;;;;;;;13.07;9.47;;;;;;;14.73;100.00;101549.69;5052384;28;20036;-69
2023/09/11 01:28:29;;;;;;;25.60;12.83;;;;;;;14.73;100.00;101555.88;5052101;28;20021;-72
2023/09/11 01:30:58;;;;;;;30.13;15.93;;;;;;;14.66;100.00;101548.69;5050619;28;20056;-67
2023/09/11 01:33:23;;;;;;;15.27;11.17;;;;;;;14.36;100.00;101505.47;5052606;28;20041;-71
2023/09/11 01:35:49;;;;;;;19.90;11.67;;;;;;;14.62;100.00;101550.88;5052269;28;20050;-73
2023/09/11 01:38:18;;;;;;;15.95;11.32;;;;;;;14.52;100.00;101543.03;5051996;28;20369;-69
2023/09/11 01:40:46;;;;;;;23.63;13.00;;;;;;;14.55;100.00;101553.41;5030660;28;20033;-69
2023/09/11 01:43:15;;;;;;;25.87;12.60;;;;;;;14.43;100.00;101527.94;5032408;28;20029;-68
2023/09/11 01:45:41;;;;;;;18.80;12.53;;;;;;;14.49;100.00;101542.53;5032096;28;20025;-68
2023/09/11 01:48:08;;;;;;;16.47;11.60;;;;;;;14.48;100.00;101546.22;5032104;28;20075;-66
2023/09/11 01:50:36;;;;;;;19.67;11.20;;;;;;;14.35;100.00;101525.25;5032098;28;20036;-70
2023/09/11 01:53:04;;;;;;;21.95;11.73;;;;;;;14.40;100.00;101538.97;5030615;28;20029;-70
2023/09/11 01:55:32;;;;;;;20.95;12.82;;;;;;;14.36;100.00;101543.00;5032177;28;20041;-69
2023/09/11 01:57:58;;;;;;;18.98;12.00;;;;;;;14.33;100.00;101540.66;5030954;28;20064;-69
2023/09/11 02:00:23;;;;;;;14.40;10.33;;;;;;;14.29;100.00;101528.59;5032184;28;20068;-67
2023/09/11 02:02:52;;;;;;;21.17;12.33;;;;;;;14.29;100.00;101536.63;5031869;28;20034;-66
2023/09/11 02:05:18;;;;;;;15.67;11.80;;;;;;;14.33;100.00;101556.72;5031858;28;20033;-69
2023/09/11 02:07:44;;;;;;;15.33;10.70;;;;;;;14.24;100.00;101544.34;5030700;28;20041;-68
2023/09/11 02:10:09;;;;;;;22.63;11.70;;;;;;;14.22;100.00;101541.00;5031978;28;20057;-68
2023/09/11 02:12:35;;;;;;;18.83;11.97;;;;;;;14.26;100.00;101545.00;5032050;28;20064;-69
2023/09/11 02:15:00;;;;;;;16.63;11.77;;;;;;;14.14;100.00;101532.94;5031871;28;20392;-71
2023/09/11 02:17:26;;;;;;;19.00;11.67;;;;;;;14.20;100.00;101553.72;5031854;28;20116;-68
2023/09/11 02:19:51;;;;;;;18.43;11.47;;;;;;;14.07;100.00;101537.28;5032182;28;20224;-71
2023/09/11 02:22:17;;;;;;;16.83;11.53;;;;;;;14.15;100.00;101550.69;5036156;28;20116;-68
2023/09/11 02:24:42;;;;;;;21.77;13.50;;;;;;;14.18;100.00;101555.75;5041645;28;20034;-69
2023/09/11 02:27:07;;;;;;;23.13;12.20;;;;;;;14.18;100.00;101558.41;5041447;28;20483;-69
2023/09/11 02:29:33;;;;;;;19.50;13.27;;;;;;;14.19;100.00;101546.69;5041905;28;20029;-67
2023/09/11 02:32:00;;;;;;;24.57;12.53;;;;;;;14.08;100.00;101530.94;5042901;28;20052;-69
2023/09/11 02:34:25;;;;;;;18.57;14.50;;;;;;;14.10;100.00;101543.16;5042764;28;20029;-68
2023/09/11 02:36:51;;;;;;;20.70;12.43;;;;;;;14.10;100.00;101540.47;5056967;28;20039;-66
2023/09/11 02:39:16;;;;;;;25.80;12.43;;;;;;;13.84;100.00;101508.47;5038431;28;20028;-70
2023/09/11 02:41:41;;;;;;;20.23;12.90;;;;;;;14.05;100.00;101541.97;5037650;28;20127;-69
2023/09/11 02:44:07;;;;;;;21.17;13.63;;;;;;;13.90;100.00;101523.06;5039592;28;20434;-66
2023/09/11 02:46:33;;;;;;;18.23;13.03;;;;;;;13.99;100.00;101534.63;5039847;28;20025;-69
2023/09/11 02:48:58;;;;;;;19.47;14.17;;;;;;;14.02;100.00;101545.84;5037691;28;20419;-67
2023/09/11 02:51:25;;;;;;;17.60;12.67;;;;;;;14.06;100.00;101557.88;5035776;28;20022;-69
2023/09/11 02:53:51;;;;;;;21.93;12.33;;;;;;;14.05;100.00;101560.72;5033957;28;20029;-70
2023/09/11 02:56:16;;;;;;;16.17;11.50;;;;;;;14.04;100.00;101557.22;5035215;28;20469;-67
2023/09/11 02:58:42;;;;;;;18.77;12.17;;;;;;;14.06;100.00;101557.03;5035351;28;20261;-67
2023/09/11 03:01:07;;;;;;;23.43;12.73;;;;;;;14.03;100.00;101560.06;5035093;28;20164;-69
2023/09/11 03:03:33;;;;;;;20.43;12.00;;;;;;;14.07;100.00;101556.03;5035057;28;20045;-67
2023/09/11 03:06:00;;;;;;;16.20;12.53;;;;;;;14.03;100.00;101547.50;5034771;28;20040;-68
2023/09/11 03:08:26;;;;;;;18.20;12.40;;;;;;;14.05;100.00;101550.84;5035307;28;20036;-67
2023/09/11 03:10:51;;;;;;;15.80;11.43;;;;;;;14.07;100.00;101546.16;5035136;28;20037;-68
2023/09/11 03:13:17;;;;;;;20.90;12.30;;;;;;;14.16;100.00;101560.41;5034909;28;20083;-68
2023/09/11 03:15:45;;;;;;;15.07;10.67;;;;;;;14.03;100.00;101519.88;5034842;28;20025;-65
2023/09/11 03:18:11;;;;;;;17.42;11.95;;;;;;;14.38;100.00;101567.78;5034599;28;20040;-67
2023/09/11 03:20:38;;;;;;;19.80;12.13;;;;;;;14.37;100.00;101560.75;5037124;28;20034;-68
2023/09/11 03:23:04;;;;;;;16.83;11.73;;;;;;;14.40;100.00;101564.94;5035903;28;20029;-70
2023/09/11 03:25:36;;;;;;;16.63;12.23;;;;;;;14.44;100.00;101556.41;5034560;28;20055;-69
2023/09/11 03:28:01;;;;;;;15.67;12.77;;;;;;;14.53;100.00;101574.19;5033372;28;20179;-69
2023/09/11 03:30:27;;;;;;;19.97;11.20;;;;;;;14.46;100.00;101554.44;5034504;28;20583;-68
2023/09/11 03:32:52;;;;;;;16.47;11.50;;;;;;;14.51;100.00;101572.69;5034632;28;20068;-69
2023/09/11 03:35:18;;;;;;;17.03;11.80;;;;;;;14.45;100.00;101563.44;5033265;28;20029;-68
2023/09/11 03:37:43;;;;;;;19.03;10.73;;;;;;;14.49;100.00;101580.06;5036396;28;20033;-67
2023/09/11 03:40:13;;;;;;;15.50;11.83;;;;;;;14.41;100.00;101561.25;5037175;28;20072;-72
2023/09/11 03:42:38;;;;;;;18.17;10.27;;;;;;;14.46;100.00;101567.81;5035655;28;20033;-69
2023/09/11 03:45:05;;;;;;;19.13;12.10;;;;;;;14.51;100.00;101576.19;5034397;28;20405;-69
2023/09/11 03:47:30;;;;;;;23.97;12.00;;;;;;;14.46;100.00;101567.81;5034338;28;20537;-73
2023/09/11 03:49:56;;;;;;;20.03;12.47;;;;;;;14.45;100.00;101558.09;5033523;28;20087;-70
2023/09/11 03:52:21;;;;;;;20.50;12.17;;;;;;;14.47;100.00;101564.16;5032809;28;20041;-68
2023/09/11 03:54:47;;;;;;;17.77;11.03;;;;;;;14.49;100.00;101563.97;5033673;28;20120;-67
2023/09/11 03:57:12;;;;;;;16.10;10.77;;;;;;;14.43;100.00;101556.59;5033067;28;20147;-67
2023/09/11 03:59:38;;;;;;;17.57;11.67;;;;;;;14.43;100.00;101560.09;5034188;28;20033;-68
2023/09/11 04:02:03;;;;;;;20.57;12.07;;;;;;;14.49;100.00;101563.97;5034070;28;20039;-70
2023/09/11 04:04:29;;;;;;;20.93;12.70;;;;;;;14.51;100.00;101568.16;5034377;28;20384;-68
2023/09/11 04:06:54;;;;;;;21.30;11.63;;;;;;;14.57;100.00;101570.16;5034456;28;20021;-68
2023/09/11 04:09:19;;;;;;;19.20;13.70;;;;;;;14.39;100.00;101537.28;5034346;28;20468;-70
2023/09/11 04:11:45;;;;;;;15.80;11.57;;;;;;;14.63;100.00;101567.78;5034110;28;20399;-67
2023/09/11 04:14:10;;;;;;;20.47;12.30;;;;;;;14.63;100.00;101557.06;5034772;28;20030;-67
2023/09/11 04:16:36;;;;;;;18.50;12.13;;;;;;;14.76;100.00;101568.13;5041966;28;20085;-68
2023/09/11 04:19:01;;;;;;;18.87;11.40;;;;;;;14.67;100.00;101548.53;5044888;28;20057;-69
2023/09/11 04:21:27;;;;;;;21.30;11.97;;;;;;;14.79;100.00;101557.06;5045284;28;20052;-66
2023/09/11 04:23:52;;;;;;;24.13;13.10;;;;;;;14.82;100.00;101570.13;5045411;28;20051;-71
2023/09/11 04:26:18;;;;;;;20.10;12.83;;;;;;;14.78;100.00;101568.78;5048841;28;20071;-69
2023/09/11 04:28:43;;;;;;;19.10;11.33;;;;;;;14.68;100.00;101547.50;5063815;28;20032;-68
2023/09/11 04:31:14;;;;;;;22.83;14.10;;;;;;;14.73;100.00;101555.88;5066752;28;20045;-67
2023/09/11 04:33:39;;;;;;;23.77;12.07;;;;;;;14.69;100.00;101545.66;5066116;28;20078;-68
2023/09/11 04:36:05;;;;;;;18.53;12.93;;;;;;;14.84;100.00;101554.69;5054955;28;20522;-69
2023/09/11 04:38:31;;;;;;;19.67;12.83;;;;;;;14.90;100.00;101555.84;5059995;28;20028;-68
2023/09/11 04:40:57;;;;;;;23.33;12.77;;;;;;;14.88;100.00;101547.97;5061520;28;20036;-69
2023/09/11 04:43:23;;;;;;;19.20;11.97;;;;;;;14.98;100.00;101553.97;5061249;28;20075;-71
2023/09/11 04:45:49;;;;;;;20.87;12.10;;;;;;;15.02;100.00;101555.31;5060785;28;20025;-69
2023/09/11 04:48:14;;;;;;;19.70;12.83;;;;;;;15.06;100.00;101556.66;5060807;28;20031;-72
2023/09/11 04:50:40;;;;;;;24.60;13.90;;;;;;;15.10;100.00;101549.09;5062378;28;20039;-67
2023/09/11 04:53:05;;;;;;;22.73;13.50;;;;;;;14.93;100.00;101518.78;5067212;28;20064;-69
2023/09/11 04:55:31;;;;;;;22.57;11.10;;;;;;;15.27;100.00;101552.53;5060127;28;20025;-67
2023/09/11 04:57:56;;;;;;;24.13;13.30;;;;;;;15.39;100.00;101551.16;5058158;28;20029;-67
2023/09/11 05:00:22;;;;;;;27.97;16.13;;;;;;;15.56;100.00;101558.09;5057638;28;20048;-68
2023/09/11 05:02:48;;;;;;;24.70;14.73;;;;;;;15.72;100.00;101560.75;5057986;28;20028;-67
2023/09/11 05:05:14;;;;;;;20.90;12.97;;;;;;;15.87;100.00;101560.81;5058133;28;20028;-68
2023/09/11 05:07:39;;;;;;;20.10;12.67;;;;;;;16.02;100.00;101558.22;5056643;28;20036;-67
2023/09/11 05:10:08;;;;;;;22.03;12.67;;;;;;;16.06;100.00;101549.59;5051473;28;20539;-68
2023/09/11 05:12:33;;;;;;;20.33;11.20;;;;;;;16.23;100.00;101555.69;5052204;28;20021;-66
2023/09/11 05:14:59;;;;;;;19.57;11.80;;;;;;;16.40;100.00;101562.59;5051915;28;20025;-67
2023/09/11 05:17:24;;;;;;;17.97;12.07;;;;;;;16.53;100.00;101556.63;5052235;28;20060;-68
2023/09/11 05:19:50;;;;;;;16.60;10.40;;;;;;;16.60;100.00;101556.72;5052700;28;20056;-70
2023/09/11 05:22:15;;;;;;;14.53;12.00;;;;;;;16.57;100.00;101551.72;5052095;28;20044;-69
2023/09/11 05:24:41;;;;;;;20.03;13.43;;;;;;;16.57;100.00;101546.31;5059884;28;20032;-66
2023/09/11 05:27:06;;;;;;;18.40;12.20;;;;;;;16.47;100.00;101543.88;5054192;28;20032;-72
2023/09/11 05:29:31;;;;;;;21.43;11.70;;;;;;;16.48;100.00;101558.16;5052916;28;20090;-69
2023/09/11 05:32:02;;;;;;;26.93;12.73;;;;;;;16.45;100.00;101562.03;5051259;28;20141;-70
2023/09/11 05:34:28;;;;;;;19.93;12.43;;;;;;;16.41;100.00;101564.25;5053457;28;20109;-66
2023/09/11 05:36:54;;;;;;;27.53;12.47;;;;;;;16.39;100.00;101560.94;5054827;28;20044;-69
2023/09/11 05:39:19;;;;;;;16.70;12.43;;;;;;;16.34;100.00;101555.25;5051628;28;20024;-68
2023/09/11 05:41:45;;;;;;;21.90;13.13;;;;;;;16.40;100.00;101567.97;5052143;28;20112;-68
2023/09/11 05:44:11;;;;;;;19.37;12.80;;;;;;;16.33;100.00;101556.28;5052088;28;20028;-69
2023/09/11 05:46:37;;;;;;;20.87;12.63;;;;;;;16.45;100.00;101559.34;5052728;28;20044;-71
2023/09/11 05:49:02;;;;;;;21.05;12.20;;;;;;;16.39;100.00;101549.34;5055524;28;20029;-73
2023/09/11 05:51:28;;;;;;;22.10;11.77;;;;;;;16.54;100.00;101560.16;5053394;28;20027;-73
2023/09/11 05:53:53;;;;;;;17.80;12.43;;;;;;;16.48;100.00;101544.72;5054876;28;20460;-70
2023/09/11 05:56:19;;;;;;;27.70;14.67;;;;;;;16.56;100.00;101558.09;5053285;28;20047;-74
2023/09/11 05:58:44;;;;;;;16.37;13.80;;;;;;;16.60;100.00;101562.09;5051786;28;20464;-71
2023/09/11 06:01:10;;;;;;;25.80;12.80;;;;;;;16.59;100.00;101555.88;5053047;28;20025;-71
2023/09/11 06:03:35;;;;;;;29.58;14.05;;;;;;;16.66;100.00;101561.38;5051578;28;20058;-70
2023/09/11 06:06:01;;;;;;;21.80;13.47;;;;;;;16.61;100.00;101547.63;5052259;28;20150;-70
2023/09/11 06:08:26;;;;;;;28.83;13.53;;;;;;;16.72;100.00;101561.50;5052194;28;20032;-72
2023/09/11 06:10:52;;;;;;;25.20;12.03;;;;;;;16.70;100.00;101546.56;5053748;28;20064;-71
2023/09/11 06:13:18;;;;;;;20.87;12.20;;;;;;;16.58;100.00;101519.25;5053856;28;20017;-72
2023/09/11 06:15:43;;;;;;;24.13;12.50;;;;;;;16.82;100.00;101549.66;5053373;28;20090;-70
2023/09/11 06:18:09;;;;;;;22.15;12.32;;;;;;;16.91;100.00;101560.13;5053525;28;20040;-71
2023/09/11 06:20:34;;;;;;;19.77;11.73;;;;;;;16.84;100.00;101543.06;5052351;28;20088;-72
2023/09/11 06:23:00;;;;;;;18.17;11.07;;;;;;;16.89;100.00;101540.66;5052299;28;20036;-70
2023/09/11 06:25:26;;;;;;;17.25;10.77;;;;;;;17.02;100.00;101545.38;5051817;28;20395;-72
2023/09/11 06:27:51;;;;;;;29.58;12.70;;;;;;;16.51;100.00;101459.16;5051667;28;20025;-71
2023/09/11 06:30:17;;;;;;;29.38;12.20;;;;;;;17.07;100.00;101536.75;5051280;28;20071;-71
2023/09/11 06:32:43;;;;;;;24.65;13.40;;;;;;;17.21;100.00;101555.56;5051668;28;20376;-71
2023/09/11 06:35:09;;;;;;;21.77;13.07;;;;;;;17.16;100.00;101532.94;5051693;28;20502;-73
2023/09/11 06:37:36;;;;;;;31.23;12.25;;;;;;;17.21;100.00;101541.28;5051560;28;20079;-71
2023/09/11 06:40:04;;;;;;;22.23;12.20;;;;;;;17.21;100.00;101539.44;5051340;28;20104;-71
2023/09/11 06:42:29;;;;;;;20.95;11.32;;;;;;;17.29;100.00;101541.16;5051347;28;20468;-72
2023/09/11 06:44:55;;;;;;;23.25;11.38;;;;;;;17.39;100.00;101557.88;5050332;28;20059;-70
2023/09/11 06:47:21;;;;;;;17.98;10.80;;;;;;;17.42;100.00;101546.75;5050449;28;20337;-72
2023/09/11 06:49:46;;;;;;;16.40;8.90;;;;;;;17.52;100.00;101552.66;5051697;28;20029;-70
2023/09/11 06:52:12;;;;;;;18.25;12.13;;;;;;;17.55;100.00;101546.06;5051510;28;20040;-73
2023/09/11 06:54:37;;;;;;;12.40;9.45;;;;;;;17.66;100.00;101556.34;5054952;28;20067;-69
2023/09/11 06:57:04;;;;;;;16.10;10.77;;;;;;;17.67;100.00;101549.09;5060013;28;20036;-71
2023/09/11 06:59:29;;;;;;;16.13;9.00;;;;;;;17.63;100.00;101536.00;5060755;28;20124;-71
2023/09/11 07:01:55;;;;;;;20.75;9.15;;;;;;;17.81;100.00;101549.09;5054879;28;20536;-68
2023/09/11 07:04:20;;;;;;;11.35;8.70;;;;;;;17.85;100.00;101552.22;5051848;28;20133;-70
2023/09/11 07:06:46;;;;;;;13.98;9.68;;;;;;;17.61;100.00;101503.03;5056024;28;20032;-68
2023/09/11 07:09:11;;;;;;;15.70;8.75;;;;;;;18.02;100.00;101563.59;5058498;28;20487;-67
2023/09/11 07:11:37;;;;;;;16.55;9.52;;;;;;;18.05;100.00;101560.53;5064142;28;20025;-67
2023/09/11 07:14:05;;;;;;;19.10;9.20;;;;;;;18.10;100.00;101567.00;5063511;28;20432;-68
2023/09/11 07:16:31;;;;;;;18.17;9.32;;;;;;;18.09;100.00;101551.03;5055040;28;20029;-69
2023/09/11 07:18:57;;;;;;;21.35;9.25;;;;;;;18.21;100.00;101561.13;5055700;28;20042;-67
2023/09/11 07:21:22;;;;;;;13.48;7.85;;;;;;;18.03;100.00;101522.97;5059393;28;20032;-66
2023/09/11 07:23:48;;;;;;;16.48;9.95;;;;;;;18.30;100.00;101559.09;5062898;28;20456;-71
2023/09/11 07:26:13;;;;;;;12.73;9.05;;;;;;;18.30;100.00;101551.03;5057234;28;20449;-68
2023/09/11 07:29:02;;;;;;;15.38;8.68;;;;;;;18.32;100.00;101550.81;5054464;28;20563;-71
2023/09/11 07:31:29;;;;;;;18.15;8.93;;;;;;;18.50;100.00;101573.59;5054542;28;20041;-69
2023/09/11 07:33:55;;;;;;;15.85;8.43;;;;;;;18.50;100.00;101564.66;5054498;28;20036;-70
2023/09/11 07:36:21;;;;;;;15.73;9.35;;;;;;;18.54;100.00;101563.25;5054524;28;20025;-70
2023/09/11 07:38:47;;;;;;;18.65;9.23;;;;;;;18.50;100.00;101551.16;5054132;28;20044;-70
2023/09/11 07:41:17;;;;;;;13.98;7.95;;;;;;;18.61;100.00;101569.53;5052932;28;20487;-71
2023/09/11 07:43:46;;;;;;;24.30;7.88;;;;;;;18.60;100.00;101562.47;5054133;28;20036;-69
2023/09/11 07:46:11;;;;;;;;;;;;;;;18.80;100.00;101568.88;5056406;28;20028;-69
2023/09/11 07:48:37;;;;;;;14.30;7.43;;;;;;;18.74;100.00;101564.25;5056560;28;19962;-68
2023/09/11 07:51:02;;;;;;;18.67;7.82;;;;;;;18.77;100.00;101557.63;5056023;28;20033;-69
2023/09/11 07:53:28;;;;;;;14.25;7.03;;;;;;;18.88;100.00;101571.44;5060166;28;20052;-68
2023/09/11 07:55:54;;;;;;;13.00;7.15;;;;;;;18.94;100.00;101572.50;5062185;28;20059;-68
2023/09/11 07:58:19;;;;;;;12.18;7.20;;;;;;;18.99;100.00;101566.50;5048172;28;20044;-67
2023/09/11 08:00:45;;;;;;;15.40;7.85;;;;;;;19.04;100.00;101572.97;5042092;28;20029;-69
2023/09/11 08:03:10;;;;;;;12.15;7.35;;;;;;;18.97;100.00;101558.59;5042744;28;20060;-68
2023/09/11 08:05:36;;;;;;;14.35;6.65;;;;;;;19.13;100.00;101569.09;5046033;28;20057;-72
2023/09/11 08:08:02;;;;;;;11.65;6.60;;;;;;;19.08;100.00;101559.91;5045844;28;20033;-66
2023/09/11 08:10:28;;;;;;;12.73;7.57;;;;;;;19.04;100.00;101550.53;5037769;28;20039;-70
2023/09/11 08:12:54;;;;;;;24.02;7.38;;;;;;;19.07;100.00;101542.03;5033919;28;20388;-69
2023/09/11 08:15:20;;;;;;;17.90;9.15;;;;;;;19.26;100.00;101572.88;5033783;28;20029;-69
2023/09/11 08:17:45;;;;;;;17.90;6.72;;;;;;;19.29;100.00;101577.88;5032386;28;20384;-70
2023/09/11 08:20:11;;;;;;;16.17;7.63;;;;;;;19.11;100.00;101530.66;5032977;28;20034;-71
2023/09/11 08:22:37;;;;;;;14.00;7.13;;;;;;;19.36;100.00;101574.16;5033083;28;20076;-69
2023/09/11 08:25:03;;;;;;;10.77;6.30;;;;;;;19.41;100.00;101570.88;5034081;28;20033;-71
2023/09/11 08:27:29;;;;;;;10.88;6.97;;;;;;;19.50;100.00;101569.69;5052458;28;20132;-72
2023/09/11 08:29:57;;;;;;;11.50;5.93;;;;;;;19.46;99.75;101568.41;5037889;28;20045;-71
2023/09/11 08:32:23;;;;;;;10.77;6.50;;;;;;;19.50;100.00;101570.50;5042763;28;20048;-69
2023/09/11 08:34:49;;;;;;;15.93;7.57;;;;;;;19.53;100.00;101553.09;5053125;28;20033;-69
2023/09/11 08:37:14;;;;;;;10.48;5.75;;;;;;;19.65;100.00;101566.84;5053049;28;20533;-69
2023/09/11 08:39:40;;;;;;;15.90;7.75;;;;;;;19.71;100.00;101569.59;5053126;28;20142;-70
2023/09/11 08:42:08;;;;;;;13.60;7.90;;;;;;;19.73;100.00;101558.56;5045815;28;20133;-71
2023/09/11 08:44:33;;;;;;;15.85;7.85;;;;;;;19.56;100.00;101530.22;5033217;28;20021;-70
2023/09/11 08:47:03;;;;;;;12.60;7.07;;;;;;;19.79;99.33;101563.16;5032892;28;20021;-73
2023/09/11 08:49:33;;;;;;;9.27;5.85;;;;;;;19.82;98.80;101557.34;5037847;28;20064;-71
2023/09/11 08:52:02;;;;;;;19.58;8.50;;;;;;;19.86;97.83;101555.88;5053092;28;20025;-70
2023/09/11 08:54:37;;;;;;;12.70;6.63;;;;;;;19.90;98.86;101549.03;5049843;28;20119;-72
2023/09/11 08:57:03;;;;;;;13.82;7.63;;;;;;;20.03;97.60;101568.00;5053024;28;20055;-72
2023/09/11 08:59:30;;;;;;;11.40;7.22;;;;;;;19.73;97.70;101516.16;5039146;28;20495;-71
2023/09/11 09:01:57;;;;;;;11.25;7.28;;;;;;;20.11;97.00;101558.84;5032301;28;20026;-68
2023/09/11 09:04:25;;;;;;;12.20;6.45;;;;;;;20.18;94.70;101566.97;5032029;28;20365;-68
2023/09/11 09:06:51;;;;;;;17.15;7.15;;;;;;;20.13;95.23;101558.66;5032463;28;20492;-70
2023/09/11 09:09:18;;;;;;;10.30;6.07;;;;;;;20.19;95.72;101565.94;5031821;28;20041;-70
2023/09/11 09:11:48;;;;;;;13.05;7.70;;;;;;;20.22;97.19;101571.75;5032232;28;20156;-68
2023/09/11 09:14:18;;;;;;;12.18;7.22;;;;;;;20.27;95.87;101560.34;5032486;28;20112;-69
2023/09/11 09:16:47;;;;;;;14.25;6.88;;;;;;;20.30;93.73;101565.34;5032318;28;20198;-68
2023/09/11 09:19:13;;;;;;;12.98;7.22;;;;;;;20.30;94.40;101554.50;5032267;28;20030;-69
2023/09/11 09:22:06;;;;;;;13.82;6.75;;;;;;;20.37;93.43;101558.03;5032184;28;20036;-69
2023/09/11 09:24:33;;;;;;;16.25;7.97;;;;;;;20.35;93.32;101562.84;5032415;28;20030;-71
2023/09/11 09:27:04;;;;;;;12.63;8.07;;;;;;;20.29;93.56;101544.72;5064253;28;20473;-69
2023/09/11 09:29:37;;;;;;;15.77;6.78;;;;;;;20.27;93.53;101538.69;5032137;28;20030;-70
2023/09/11 09:32:06;;;;;;;13.60;7.80;;;;;;;20.37;93.31;101553.47;5031881;28;20053;-69
2023/09/11 09:34:33;;;;;;;13.30;7.43;;;;;;;20.40;91.73;101557.66;5032389;28;20036;-68
2023/09/11 09:36:59;;;;;;;11.65;7.00;;;;;;;20.39;91.51;101542.44;5032542;28;20029;-72
2023/09/11 09:39:28;;;;;;;16.08;7.78;;;;;;;20.43;91.16;101543.72;5032223;28;20412;-69
2023/09/11 09:42:02;;;;;;;9.18;6.40;;;;;;;20.47;90.70;101534.13;5031882;28;20045;-69
2023/09/11 09:44:28;;;;;;;11.75;7.00;;;;;;;20.59;89.98;101547.88;5032555;28;20021;-71
2023/09/11 09:46:53;;;;;;;10.52;6.72;;;;;;;20.62;88.88;101544.75;5032726;28;20212;-70
2023/09/11 09:49:21;;;;;;;10.07;6.13;;;;;;;20.61;88.33;101538.50;5031934;28;20116;-70
2023/09/11 09:51:47;;;;;;;7.53;6.55;;;;;;;20.77;88.18;101545.34;5031965;28;20473;-69
2023/09/11 09:54:12;;;;;;;13.65;6.93;;;;;;;20.85;87.14;101547.03;5031669;28;20079;-69
2023/09/11 09:56:39;;;;;;;10.02;7.88;;;;;;;20.94;86.86;101543.03;5031933;28;20029;-71
2023/09/11 09:59:07;;;;;;;11.98;8.52;;;;;;;20.96;86.39;101522.81;5032165;28;20029;-75
2023/09/11 10:01:44;;;;;;;13.40;8.10;;;;;;;21.13;85.13;101539.44;5031836;28;20103;-70
2023/09/11 10:04:16;;;;;;;16.35;6.97;;;;;;;21.14;84.37;101526.72;5031903;28;20057;-69
2023/09/11 10:06:41;;;;;;;18.98;7.30;;;;;;;21.19;84.78;101538.59;5031731;28;20025;-72
2023/09/11 10:09:10;;;;;;;11.80;7.88;;;;;;;21.21;83.53;101531.06;5030607;28;20034;-68
2023/09/11 10:11:37;;;;;;;15.52;9.48;;;;;;;21.06;84.00;101498.00;5031879;28;20030;-70
2023/09/11 10:14:06;;;;;;;19.75;10.35;;;;;;;21.25;83.05;101520.66;5031751;28;20033;-69
2023/09/11 10:16:31;;;;;;;13.40;9.63;;;;;;;21.29;82.66;101522.72;5031755;28;20025;-70
2023/09/11 10:18:58;;;;;;;10.10;8.43;;;;;;;21.44;83.11;101537.91;5031650;28;20043;-68
2023/09/11 10:21:25;;;;;;;12.23;8.15;;;;;;;21.44;82.67;101524.34;5031555;28;20532;-70
2023/09/11 10:23:51;;;;;;;17.58;7.15;;;;;;;21.52;81.69;101534.94;5031765;28;20083;-68
2023/09/11 10:26:39;;;;;;;13.65;7.95;;;;;;;21.49;80.22;101524.53;5032124;28;20025;-67
2023/09/11 10:29:16;;;;;;;11.13;7.20;;;;;;;21.55;79.76;101532.63;5031351;28;20047;-68
2023/09/11 10:31:56;;;;;;;11.00;7.25;;;;;;;20.76;77.98;101402.91;5031885;28;20140;-67
2023/09/11 10:34:24;;;;;;;12.85;7.65;;;;;;;20.91;79.06;101471.19;5031729;28;20033;-69
2023/09/11 10:36:56;;;;;;;12.75;7.82;;;;;;;21.07;80.75;101512.34;5031726;28;20139;-70
2023/09/11 10:39:22;;;;;;;11.07;7.95;;;;;;;20.93;80.65;101514.28;5063525;28;20033;-69
2023/09/11 10:41:48;;;;;;;14.20;7.55;;;;;;;20.76;81.37;101503.06;5031511;28;20026;-67
2023/09/11 10:44:15;;;;;;;12.13;7.43;;;;;;;20.80;82.51;101523.25;5031732;28;20102;-68
2023/09/11 10:46:51;;;;;;;12.98;8.27;;;;;;;20.78;83.52;101528.06;5035540;28;20030;-70
2023/09/11 10:49:22;;;;;;;15.63;8.90;;;;;;;20.66;83.03;101522.47;5035514;28;20135;-69
2023/09/11 10:51:49;;;;;;;9.90;7.88;;;;;;;20.62;84.26;101525.81;5035315;28;20025;-66
2023/09/11 10:54:19;;;;;;;12.00;7.80;;;;;;;20.63;83.45;101514.78;5035313;28;20034;-69
2023/09/11 10:56:45;;;;;;;12.48;7.70;;;;;;;20.82;82.34;101523.91;5035187;28;20079;-67
2023/09/11 10:59:11;;;;;;;12.80;7.80;;;;;;;20.96;82.12;101521.97;5035042;28;20112;-70
2023/09/11 11:01:37;;;;;;;14.60;7.20;;;;;;;20.73;81.63;101474.56;5035401;28;20091;-69
2023/09/11 11:04:03;;;;;;;14.60;7.38;;;;;;;21.21;81.08;101514.81;5035215;28;20033;-69
2023/09/11 11:06:31;;;;;;;14.35;6.88;;;;;;;21.32;79.24;101511.47;5034949;28;20461;-68